Time;durP1;ratioP1;P1;durP2;ratioP2;P2;SDS_P1;SDS_P2;PMS_P1;PMS_P2;Temp;Humidity;BMP_temperature;BMP_pressure;BME280_temperature;BME280_humidity;BME280_pressure;Samples;Min_cycle;Max_cycle;Signal;HPM_P1;HPM_P2
2021/11/27 00:01:09;;;;;;;27.52;6.53;;;;;;;12.51;100.00;99545.13;1732903;81;22631;-60
2021/11/27 00:03:36;;;;;;;20.82;6.35;;;;;;;12.53;100.00;99539.17;1739399;81;21004;-60
2021/11/27 00:06:03;;;;;;;21.62;6.20;;;;;;;12.55;100.00;99543.97;1734520;81;21069;-60
2021/11/27 00:08:31;;;;;;;24.47;5.45;;;;;;;12.55;100.00;99553.84;1731400;81;21398;-61
2021/11/27 00:10:59;;;;;;;25.23;6.25;;;;;;;12.52;100.00;99549.55;1734998;81;21506;-60
2021/11/27 00:13:29;;;;;;;16.32;4.85;;;;;;;12.50;100.00;99552.81;1739055;81;21817;-61
2021/11/27 00:15:56;;;;;;;27.80;6.12;;;;;;;12.54;100.00;99549.44;1741916;81;21434;-60
2021/11/27 00:18:23;;;;;;;20.65;5.72;;;;;;;12.57;100.00;99551.92;1734587;81;21048;-60
2021/11/27 00:20:58;;;;;;;24.32;6.50;;;;;;;12.59;100.00;99550.00;1713922;82;21501;-64
2021/11/27 00:23:26;;;;;;;29.00;6.40;;;;;;;12.58;100.00;99543.78;1708950;82;21043;-63
2021/11/27 00:25:54;;;;;;;27.13;5.65;;;;;;;12.57;100.00;99546.55;1709360;82;21140;-63
2021/11/27 00:28:21;;;;;;;25.12;5.40;;;;;;;12.56;100.00;99538.98;1719705;82;21099;-63
2021/11/27 00:30:49;;;;;;;22.32;5.67;;;;;;;12.59;100.00;99533.87;1721478;82;21032;-64
2021/11/27 00:33:16;;;;;;;23.85;6.00;;;;;;;12.59;100.00;99532.06;1707523;82;21068;-63
2021/11/27 00:35:44;;;;;;;22.75;5.92;;;;;;;12.63;100.00;99530.52;1724633;81;21103;-63
2021/11/27 00:38:11;;;;;;;25.40;5.80;;;;;;;12.66;100.00;99526.28;1719296;82;21159;-63
2021/11/27 00:40:39;;;;;;;24.70;5.25;;;;;;;12.70;99.87;99515.25;1710005;82;20998;-63
2021/11/27 00:43:08;;;;;;;28.10;5.33;;;;;;;12.78;99.44;99505.81;1713798;82;21057;-63
2021/11/27 00:45:35;;;;;;;22.58;5.25;;;;;;;12.82;98.83;99508.69;1700235;82;21040;-63
2021/11/27 00:48:04;;;;;;;24.65;6.03;;;;;;;12.78;98.39;99508.04;1700506;82;21056;-63
2021/11/27 00:50:42;;;;;;;29.00;6.62;;;;;;;12.74;98.42;99506.52;1698888;82;21125;-65
2021/11/27 00:53:09;;;;;;;21.52;5.83;;;;;;;12.71;98.49;99508.03;1701131;82;20996;-64
2021/11/27 00:55:36;;;;;;;22.85;5.15;;;;;;;12.65;98.36;99503.05;1700358;82;21068;-64
2021/11/27 00:58:05;;;;;;;24.65;5.85;;;;;;;12.61;98.53;99496.53;1715405;82;21017;-64
2021/11/27 01:00:36;;;;;;;27.30;6.08;;;;;;;12.59;98.87;99482.78;1730885;82;21363;-64
2021/11/27 01:03:04;;;;;;;20.72;5.83;;;;;;;12.60;99.15;99481.86;1725085;82;21131;-64
2021/11/27 01:05:33;;;;;;;17.75;5.45;;;;;;;12.58;99.38;99476.56;1711963;82;21427;-64
2021/11/27 01:07:59;;;;;;;30.52;6.58;;;;;;;12.58;99.57;99472.53;1704796;82;21049;-64
2021/11/27 01:10:29;;;;;;;26.20;6.15;;;;;;;12.58;99.92;99471.19;1704516;82;21041;-64
2021/11/27 01:12:57;;;;;;;25.08;5.95;;;;;;;12.58;100.00;99471.19;1718898;81;21839;-64
2021/11/27 01:15:28;;;;;;;23.07;5.40;;;;;;;12.58;100.00;99453.71;1709341;82;23114;-65
2021/11/27 01:17:55;;;;;;;25.23;6.35;;;;;;;12.60;100.00;99453.13;1705898;82;21052;-64
2021/11/27 01:20:26;;;;;;;23.07;6.20;;;;;;;12.59;100.00;99454.09;1719531;82;21108;-64
2021/11/27 01:22:53;;;;;;;20.65;6.30;;;;;;;12.56;100.00;99444.89;1705300;82;21032;-63
2021/11/27 01:25:20;;;;;;;19.07;6.00;;;;;;;12.53;100.00;99441.05;1713899;82;21568;-64
2021/11/27 01:27:46;;;;;;;27.00;6.70;;;;;;;12.53;100.00;99446.90;1714977;82;21802;-63
2021/11/27 01:30:13;;;;;;;25.72;7.22;;;;;;;12.52;100.00;99433.08;1726046;82;21061;-64
2021/11/27 01:32:41;;;;;;;22.87;6.12;;;;;;;12.52;100.00;99423.20;1709389;82;21005;-64
2021/11/27 01:35:09;;;;;;;16.32;5.53;;;;;;;12.54;100.00;99429.34;1704317;82;21025;-64
2021/11/27 01:37:36;;;;;;;20.32;5.92;;;;;;;12.58;100.00;99418.77;1712719;82;20934;-64
2021/11/27 01:40:04;;;;;;;19.27;5.90;;;;;;;12.62;100.00;99423.47;1721011;82;21441;-64
2021/11/27 01:42:31;;;;;;;20.37;6.28;;;;;;;12.63;100.00;99421.63;1726712;82;21470;-64
2021/11/27 01:44:58;;;;;;;16.30;6.10;;;;;;;12.61;100.00;99417.72;1701868;82;21084;-65
2021/11/27 01:47:25;;;;;;;20.55;5.80;;;;;;;12.64;100.00;99420.66;1710017;82;21521;-65
2021/11/27 01:49:53;;;;;;;14.53;5.87;;;;;;;12.69;100.00;99416.72;1707668;82;21103;-64
2021/11/27 01:52:20;;;;;;;19.52;5.95;;;;;;;12.75;100.00;99420.84;1720498;82;21150;-64
2021/11/27 01:54:48;;;;;;;24.32;6.25;;;;;;;12.79;100.00;99419.67;1724130;82;21687;-65
2021/11/27 01:57:14;;;;;;;21.20;6.95;;;;;;;12.83;100.00;99419.00;1726210;82;21504;-65
2021/11/27 01:59:42;;;;;;;24.37;6.12;;;;;;;12.86;100.00;99433.59;1733217;82;21010;-65
2021/11/27 02:02:12;;;;;;;27.30;7.33;;;;;;;12.89;100.00;99430.69;1729904;82;20989;-65
2021/11/27 02:04:39;;;;;;;25.23;7.50;;;;;;;12.94;100.00;99422.33;1725395;82;21841;-65
2021/11/27 02:07:07;;;;;;;21.87;6.55;;;;;;;12.96;100.00;99425.27;1705719;82;21524;-64
2021/11/27 02:09:37;;;;;;;21.45;7.53;;;;;;;13.00;100.00;99438.05;1704940;82;21127;-64
2021/11/27 02:12:07;;;;;;;28.40;7.20;;;;;;;13.02;100.00;99421.32;1709156;82;21089;-63
2021/11/27 02:14:37;;;;;;;24.60;7.00;;;;;;;13.04;100.00;99428.80;1694144;82;22208;-63
2021/11/27 02:17:10;;;;;;;18.50;7.10;;;;;;;13.04;100.00;99435.53;1708843;82;21621;-63
2021/11/27 02:19:38;;;;;;;26.52;7.47;;;;;;;13.07;100.00;99444.73;1721236;81;20996;-64
2021/11/27 02:22:06;;;;;;;23.73;7.15;;;;;;;13.13;100.00;99444.32;1720549;83;21091;-63
2021/11/27 02:24:37;;;;;;;20.32;7.65;;;;;;;13.18;100.00;99446.25;1725655;81;21557;-63
2021/11/27 02:27:05;;;;;;;21.02;7.15;;;;;;;13.24;100.00;99441.41;1722579;81;21071;-63
2021/11/27 02:29:32;;;;;;;18.62;6.60;;;;;;;13.25;100.00;99431.02;1725169;81;21449;-64
2021/11/27 02:31:59;;;;;;;20.27;6.97;;;;;;;13.27;100.00;99429.97;1732637;81;21076;-63
2021/11/27 02:34:26;;;;;;;25.20;7.40;;;;;;;13.27;100.00;99413.82;1734831;81;21011;-63
2021/11/27 02:36:57;;;;;;;17.85;7.33;;;;;;;13.25;100.00;99422.95;1721750;81;21142;-63
2021/11/27 02:39:24;;;;;;;25.02;8.08;;;;;;;13.25;100.00;99417.06;1725297;81;21060;-63
2021/11/27 02:41:53;;;;;;;21.87;7.05;;;;;;;13.29;100.00;99412.35;1732820;81;21943;-63
2021/11/27 02:44:23;;;;;;;20.10;7.00;;;;;;;13.29;100.00;99412.35;1732715;81;21481;-63
2021/11/27 02:46:50;;;;;;;33.28;9.08;;;;;;;13.29;100.00;99406.50;1736684;81;21460;-63
2021/11/27 02:49:17;;;;;;;27.05;9.00;;;;;;;13.29;100.00;99424.47;1730123;81;21044;-63
2021/11/27 02:51:45;;;;;;;21.95;7.33;;;;;;;13.31;100.00;99417.14;1732551;81;21004;-63
2021/11/27 02:54:12;;;;;;;19.73;7.20;;;;;;;13.37;100.00;99413.18;1741549;81;21473;-63
2021/11/27 02:56:39;;;;;;;24.12;7.60;;;;;;;13.38;100.00;99411.75;1740772;81;21054;-63
2021/11/27 02:59:15;;;;;;;20.15;7.80;;;;;;;13.33;100.00;99418.78;1729689;81;21526;-63
2021/11/27 03:01:43;;;;;;;19.57;7.67;;;;;;;13.32;100.00;99420.21;1723313;81;21466;-64
2021/11/27 03:04:11;;;;;;;19.98;7.35;;;;;;;13.33;100.00;99408.48;1724736;81;22091;-61
2021/11/27 03:06:41;;;;;;;23.75;8.53;;;;;;;13.36;100.00;99404.23;1724660;81;21135;-60
2021/11/27 03:09:08;;;;;;;27.75;8.25;;;;;;;13.38;100.00;99407.70;1724912;81;21572;-60
2021/11/27 03:11:35;;;;;;;22.40;7.22;;;;;;;13.32;100.00;99402.25;1723127;81;21067;-61
2021/11/27 03:14:03;;;;;;;27.98;8.90;;;;;;;13.28;100.00;99402.55;1724821;81;20976;-60
2021/11/27 03:16:32;;;;;;;23.32;7.58;;;;;;;13.23;100.00;99400.67;1744963;81;21279;-60
2021/11/27 03:19:00;;;;;;;27.27;8.48;;;;;;;13.20;100.00;99404.92;1729265;81;21057;-60
2021/11/27 03:21:27;;;;;;;23.00;8.05;;;;;;;13.16;100.00;99401.09;1700735;82;21428;-61
2021/11/27 03:23:54;;;;;;;28.70;8.53;;;;;;;13.13;100.00;99401.27;1709474;82;21008;-60
2021/11/27 03:26:21;;;;;;;30.95;8.75;;;;;;;13.11;100.00;99392.44;1728663;82;21603;-61
2021/11/27 03:28:48;;;;;;;22.07;8.38;;;;;;;13.06;100.00;99404.50;1717112;82;21111;-61
2021/11/27 03:31:15;;;;;;;26.60;9.10;;;;;;;12.97;100.00;99404.13;1718005;82;21089;-62
2021/11/27 03:33:42;;;;;;;29.25;8.18;;;;;;;12.90;100.00;99397.45;1694957;82;21481;-61
2021/11/27 03:36:09;;;;;;;34.03;9.88;;;;;;;12.88;100.00;99400.72;1700131;82;21627;-62
2021/11/27 03:38:38;;;;;;;31.55;9.75;;;;;;;12.89;100.00;99411.36;1716307;82;21119;-60
2021/11/27 03:41:05;;;;;;;36.05;9.35;;;;;;;12.89;100.00;99415.39;1678573;82;22129;-59
2021/11/27 03:43:32;;;;;;;28.70;9.15;;;;;;;12.87;100.00;99409.76;1704344;82;21804;-61
2021/11/27 03:46:00;;;;;;;23.40;7.97;;;;;;;12.87;100.00;99411.95;1713512;82;21008;-61
2021/11/27 03:48:33;;;;;;;22.37;8.35;;;;;;;12.85;100.00;99412.53;1713637;82;21008;-62
2021/11/27 03:51:08;;;;;;;23.70;8.25;;;;;;;12.85;100.00;99409.00;1698464;82;22242;-61
2021/11/27 03:53:36;;;;;;;29.80;8.45;;;;;;;12.84;100.00;99404.09;1699274;82;21060;-64
2021/11/27 03:56:09;;;;;;;27.80;9.28;;;;;;;12.85;100.00;99404.47;1719274;82;20969;-64
2021/11/27 03:58:37;;;;;;;22.82;7.90;;;;;;;12.85;100.00;99407.16;1710435;82;21039;-64
2021/11/27 04:01:08;;;;;;;18.57;8.25;;;;;;;12.89;100.00;99403.80;1699772;82;21029;-62
2021/11/27 04:03:38;;;;;;;18.23;7.72;;;;;;;12.89;100.00;99401.95;1699947;82;21039;-63
2021/11/27 04:06:05;;;;;;;23.27;7.70;;;;;;;12.93;100.00;99421.45;1704621;82;21096;-63
2021/11/27 04:08:33;;;;;;;21.23;8.60;;;;;;;12.92;100.00;99418.84;1726310;82;21907;-63
2021/11/27 04:11:00;;;;;;;24.32;7.97;;;;;;;12.87;100.00;99414.64;1709278;82;20995;-63
2021/11/27 04:13:27;;;;;;;18.48;8.05;;;;;;;12.83;100.00;99417.16;1689772;82;21080;-63
2021/11/27 04:15:55;;;;;;;20.43;8.45;;;;;;;12.81;100.00;99419.55;1718757;82;21000;-64
2021/11/27 04:18:22;;;;;;;20.97;8.38;;;;;;;12.76;99.98;99427.95;1700378;82;21116;-63
2021/11/27 04:20:51;;;;;;;18.75;8.18;;;;;;;12.72;99.99;99431.80;1740111;81;21011;-63
2021/11/27 04:23:19;;;;;;;19.12;8.33;;;;;;;12.69;99.93;99427.94;1730837;81;21007;-63
2021/11/27 04:25:48;;;;;;;22.48;8.88;;;;;;;12.67;99.86;99433.44;1728689;81;21098;-64
2021/11/27 04:28:15;;;;;;;16.35;8.10;;;;;;;12.64;99.84;99426.04;1721351;81;21039;-63
2021/11/27 04:30:43;;;;;;;20.30;8.63;;;;;;;12.61;99.84;99429.31;1728521;81;20849;-63
2021/11/27 04:33:10;;;;;;;21.35;9.28;;;;;;;12.58;99.67;99428.17;1726445;81;21488;-63
2021/11/27 04:35:39;;;;;;;23.73;8.85;;;;;;;12.55;99.58;99430.19;1724535;81;21679;-62
2021/11/27 04:38:07;;;;;;;18.57;9.15;;;;;;;12.49;99.34;99420.71;1723757;81;21647;-62
2021/11/27 04:40:34;;;;;;;23.75;9.58;;;;;;;12.41;99.59;99419.86;1720472;83;21067;-63
2021/11/27 04:43:02;;;;;;;20.68;9.70;;;;;;;12.36;99.70;99421.10;1724733;81;21453;-63
2021/11/27 04:45:30;;;;;;;20.52;9.30;;;;;;;12.28;99.66;99426.50;1742242;80;22333;-63
2021/11/27 04:47:57;;;;;;;21.45;9.45;;;;;;;12.22;99.83;99436.27;1739905;81;20929;-63
2021/11/27 04:50:24;;;;;;;19.65;9.30;;;;;;;12.18;100.00;99436.08;1724717;81;21091;-63
2021/11/27 04:52:51;;;;;;;16.45;8.78;;;;;;;12.17;100.00;99427.64;1732451;81;21544;-63
2021/11/27 04:55:20;;;;;;;19.30;9.70;;;;;;;12.14;100.00;99423.80;1732629;81;21052;-63
2021/11/27 04:57:49;;;;;;;18.80;8.65;;;;;;;12.12;100.00;99428.42;1719326;81;21077;-63
2021/11/27 05:00:21;;;;;;;27.20;9.43;;;;;;;12.06;100.00;99426.12;1742580;81;21529;-63
2021/11/27 05:02:49;;;;;;;21.90;9.53;;;;;;;11.98;100.00;99431.44;1742885;81;20990;-63
2021/11/27 05:05:16;;;;;;;17.70;9.08;;;;;;;11.88;100.00;99436.52;1741392;81;21092;-62
2021/11/27 05:07:44;;;;;;;19.45;9.05;;;;;;;11.77;100.00;99432.76;1724907;81;21582;-63
2021/11/27 05:10:12;;;;;;;17.57;8.73;;;;;;;11.68;100.00;99439.09;1727214;81;21142;-63
2021/11/27 05:12:41;;;;;;;20.70;9.58;;;;;;;11.63;100.00;99439.85;1749363;80;21024;-63
2021/11/27 05:15:09;;;;;;;25.23;10.05;;;;;;;11.58;100.00;99443.27;1724896;81;21051;-64
2021/11/27 05:17:38;;;;;;;18.75;8.85;;;;;;;11.54;100.00;99449.78;1727292;81;20936;-64
2021/11/27 05:20:09;;;;;;;20.23;8.73;;;;;;;11.50;100.00;99446.91;1731139;81;22166;-63
2021/11/27 05:22:36;;;;;;;20.00;9.13;;;;;;;11.45;100.00;99444.02;1703914;82;21847;-63
2021/11/27 05:25:05;;;;;;;20.00;8.38;;;;;;;11.42;100.00;99443.33;1706442;82;21032;-63
2021/11/27 05:27:51;;;;;;;21.60;9.10;;;;;;;11.38;100.00;99437.77;1702428;82;21255;-63
2021/11/27 05:30:28;;;;;;;23.10;9.65;;;;;;;11.35;100.00;99454.89;1698285;82;21045;-63
2021/11/27 05:35:38;;;;;;;23.98;8.98;;;;;;;11.30;100.00;99471.75;1715945;82;21976;-63
2021/11/27 05:38:05;;;;;;;23.95;9.18;;;;;;;11.27;100.00;99477.30;1711109;82;20965;-62
2021/11/27 05:40:32;;;;;;;24.57;9.05;;;;;;;11.24;100.00;99474.80;1699212;82;21012;-63
2021/11/27 05:42:59;;;;;;;21.05;9.28;;;;;;;11.24;100.00;99482.84;1708923;82;21019;-63
2021/11/27 05:45:29;;;;;;;23.57;9.45;;;;;;;11.22;100.00;99484.77;1708610;82;21519;-63
2021/11/27 05:47:58;;;;;;;26.05;9.15;;;;;;;11.21;100.00;99489.73;1714967;82;21541;-63
2021/11/27 05:50:27;;;;;;;29.57;8.68;;;;;;;11.25;100.00;99492.63;1704563;82;21106;-63
2021/11/27 05:52:54;;;;;;;20.77;8.75;;;;;;;11.29;100.00;99496.85;1711851;82;21114;-63
2021/11/27 05:55:21;;;;;;;25.30;9.15;;;;;;;11.32;100.00;99500.23;1701793;82;21049;-63
2021/11/27 05:57:49;;;;;;;27.22;9.45;;;;;;;11.38;100.00;99507.03;1706781;82;21466;-64
2021/11/27 06:00:16;;;;;;;19.30;8.80;;;;;;;11.49;100.00;99512.27;1720411;82;21134;-63
2021/11/27 06:02:44;;;;;;;22.30;8.38;;;;;;;11.54;100.00;99514.20;1703732;82;20950;-63
2021/11/27 06:05:11;;;;;;;23.40;9.48;;;;;;;11.60;100.00;99509.80;1700329;82;21056;-64
2021/11/27 06:07:38;;;;;;;21.55;8.70;;;;;;;11.68;100.00;99512.92;1709815;82;21498;-64
2021/11/27 06:10:06;;;;;;;18.05;9.23;;;;;;;11.73;100.00;99514.84;1714016;82;21116;-64
2021/11/27 06:12:33;;;;;;;19.52;8.85;;;;;;;11.79;100.00;99511.39;1721151;82;21363;-64
2021/11/27 06:15:00;;;;;;;21.42;9.23;;;;;;;11.84;100.00;99512.00;1714059;82;21112;-64
2021/11/27 06:17:27;;;;;;;17.32;8.68;;;;;;;11.85;100.00;99511.89;1700080;82;21072;-64
2021/11/27 06:19:54;;;;;;;31.07;9.13;;;;;;;11.90;100.00;99510.28;1699829;84;21060;-64
2021/11/27 06:22:41;;;;;;;20.80;8.05;;;;;;;11.94;100.00;99517.20;1714374;82;21116;-65
2021/11/27 06:25:08;;;;;;;21.50;8.63;;;;;;;12.00;100.00;99508.75;1629583;87;21115;-64
2021/11/27 06:27:35;;;;;;;20.72;9.15;;;;;;;12.09;100.00;99525.32;1624950;86;21123;-64
2021/11/27 06:30:02;;;;;;;25.37;9.00;;;;;;;12.19;100.00;99537.22;1630203;87;21076;-63
2021/11/27 06:32:31;;;;;;;25.17;8.63;;;;;;;12.26;100.00;99537.22;1632805;86;21064;-64
2021/11/27 06:35:00;;;;;;;20.52;8.33;;;;;;;12.34;100.00;99531.88;1624034;86;21338;-64
2021/11/27 06:37:27;;;;;;;13.88;7.83;;;;;;;12.41;100.00;99542.15;1623252;86;21937;-63
2021/11/27 06:39:54;;;;;;;16.82;8.58;;;;;;;12.47;100.00;99532.81;1631950;86;21143;-65
2021/11/27 06:42:21;;;;;;;17.85;8.60;;;;;;;12.50;100.00;99521.90;1633394;86;21113;-65
2021/11/27 06:44:53;;;;;;;17.75;8.85;;;;;;;12.56;100.00;99517.94;1626055;87;21104;-64
2021/11/27 06:47:22;;;;;;;20.40;8.25;;;;;;;12.60;100.00;99510.94;1627248;86;21067;-63
2021/11/27 06:49:50;;;;;;;19.25;7.62;;;;;;;12.64;99.92;99517.45;1617716;86;21212;-64
2021/11/27 06:52:17;;;;;;;15.48;7.83;;;;;;;12.64;99.49;99513.42;1629805;86;21045;-64
2021/11/27 06:54:43;;;;;;;15.32;6.67;;;;;;;12.68;99.32;99517.64;1630312;87;21021;-64
2021/11/27 06:57:10;;;;;;;12.90;7.37;;;;;;;12.75;98.80;99522.53;1618435;87;21573;-64
2021/11/27 06:59:39;;;;;;;16.15;7.70;;;;;;;12.77;98.16;99514.84;1621099;87;21052;-65
2021/11/27 07:02:25;;;;;;;15.15;8.18;;;;;;;12.81;97.82;99514.56;1629131;87;21153;-65
2021/11/27 07:05:10;;;;;;;16.27;8.00;;;;;;;12.87;97.38;99520.88;1617374;87;28194;-63
2021/11/27 07:07:39;;;;;;;12.88;7.20;;;;;;;12.93;96.59;99514.72;1623430;87;21014;-63
2021/11/27 07:10:14;;;;;;;16.07;7.62;;;;;;;12.94;95.95;99511.94;1621143;86;21079;-64
2021/11/27 07:12:44;;;;;;;12.60;7.00;;;;;;;12.95;95.46;99514.16;1624187;87;21105;-64
2021/11/27 07:15:12;;;;;;;10.88;6.95;;;;;;;12.98;94.78;99519.34;1616031;87;21135;-65
2021/11/27 07:17:41;;;;;;;13.95;7.05;;;;;;;12.97;94.27;99514.43;1623202;86;21457;-65
2021/11/27 07:20:09;;;;;;;12.55;7.08;;;;;;;12.98;93.89;99523.38;1634239;86;21071;-65
2021/11/27 07:22:36;;;;;;;16.07;7.40;;;;;;;12.98;93.67;99517.50;1621668;87;21636;-64
2021/11/27 07:25:04;;;;;;;15.83;7.62;;;;;;;13.01;93.39;99523.17;1659732;84;21400;-65
2021/11/27 07:27:33;;;;;;;13.98;7.10;;;;;;;13.04;93.02;99525.66;1627684;87;21197;-64
2021/11/27 07:30:00;;;;;;;15.90;6.90;;;;;;;13.09;92.65;99532.09;1630949;87;21529;-67
2021/11/27 07:32:27;;;;;;;17.87;8.13;;;;;;;13.14;92.30;99528.12;1625511;87;21055;-66
2021/11/27 07:34:54;;;;;;;14.05;6.70;;;;;;;13.18;92.13;99524.29;1648546;85;20996;-64
2021/11/27 07:37:21;;;;;;;14.07;7.00;;;;;;;13.26;91.69;99520.22;1620651;85;21066;-64
2021/11/27 07:39:48;;;;;;;13.15;6.15;;;;;;;13.31;90.83;99530.19;1626645;86;21147;-64
2021/11/27 07:42:15;;;;;;;21.15;6.30;;;;;;;13.38;90.34;99529.31;1631099;86;21045;-64
2021/11/27 07:44:49;;;;;;;16.77;6.50;;;;;;;13.45;89.48;99529.30;1638207;85;21532;-64
2021/11/27 07:47:18;;;;;;;14.45;6.78;;;;;;;13.49;89.15;99531.32;1644722;85;21537;-65
2021/11/27 07:50:05;;;;;;;13.30;6.45;;;;;;;13.55;88.69;99540.33;1655451;85;21086;-65
2021/11/27 07:52:50;;;;;;;13.00;5.95;;;;;;;13.55;88.21;99533.12;1626726;85;21510;-65
2021/11/27 07:55:17;;;;;;;14.83;6.33;;;;;;;13.56;87.54;99538.02;1636938;86;21017;-65
2021/11/27 07:57:44;;;;;;;17.02;6.75;;;;;;;13.55;87.34;99540.33;1622248;86;21745;-65
2021/11/27 08:00:12;;;;;;;17.00;6.20;;;;;;;13.58;87.22;99542.80;1657389;85;21104;-62
2021/11/27 08:02:43;;;;;;;14.45;6.25;;;;;;;13.60;87.04;99538.21;1634045;85;21123;-61
2021/11/27 08:05:10;;;;;;;15.25;6.17;;;;;;;13.64;86.64;99544.23;1631841;85;21147;-61
2021/11/27 08:07:38;;;;;;;13.48;6.42;;;;;;;13.67;86.35;99547.59;1634211;85;21085;-64
2021/11/27 08:10:07;;;;;;;9.60;5.53;;;;;;;13.72;85.54;99554.88;1653967;85;21064;-64
2021/11/27 08:12:35;;;;;;;12.03;6.17;;;;;;;13.78;84.87;99556.77;1656307;85;21083;-65
2021/11/27 08:15:06;;;;;;;10.45;5.90;;;;;;;13.84;84.33;99553.18;1653168;85;21076;-65
2021/11/27 08:17:39;;;;;;;11.83;5.67;;;;;;;13.88;83.86;99552.50;1657543;85;21934;-65
2021/11/27 08:20:08;;;;;;;9.05;5.85;;;;;;;13.91;83.50;99553.63;1657039;85;21068;-62
2021/11/27 08:22:35;;;;;;;10.95;5.55;;;;;;;13.96;83.23;99560.06;1627800;86;21591;-61
2021/11/27 08:25:03;;;;;;;10.25;5.80;;;;;;;14.00;82.72;99565.11;1626689;86;21097;-62
2021/11/27 08:27:30;;;;;;;10.78;5.85;;;;;;;14.06;82.28;99565.69;1625587;86;21602;-62
2021/11/27 08:29:57;;;;;;;11.60;5.90;;;;;;;14.11;82.12;99566.22;1627745;86;21160;-61
2021/11/27 08:32:24;;;;;;;10.75;6.17;;;;;;;14.15;81.77;99566.39;1624521;86;21138;-61
2021/11/27 08:34:51;;;;;;;13.40;6.00;;;;;;;14.14;81.56;99565.51;1654989;85;21592;-62
2021/11/27 08:37:18;;;;;;;13.65;6.42;;;;;;;14.14;81.89;99562.81;1653585;85;21089;-62
2021/11/27 08:39:45;;;;;;;16.02;7.12;;;;;;;14.14;82.33;99560.12;1627837;86;21676;-62
2021/11/27 08:42:12;;;;;;;13.60;6.08;;;;;;;14.14;82.43;99551.19;1628460;86;21837;-64
2021/11/27 08:44:39;;;;;;;16.12;6.53;;;;;;;14.19;82.65;99554.42;1622754;86;21144;-62
2021/11/27 08:47:06;;;;;;;14.93;5.75;;;;;;;14.23;82.13;99563.16;1623020;86;21786;-61
2021/11/27 08:49:34;;;;;;;11.45;5.75;;;;;;;14.27;81.86;99564.20;1623566;86;21481;-61
2021/11/27 08:52:00;;;;;;;8.15;5.37;;;;;;;14.29;81.21;99555.99;1614693;87;21507;-62
2021/11/27 08:54:27;;;;;;;9.38;5.25;;;;;;;14.31;80.71;99546.84;1651954;85;21094;-62
2021/11/27 08:56:56;;;;;;;8.85;4.87;;;;;;;14.36;80.44;99549.69;1652540;85;21079;-61
2021/11/27 08:59:23;;;;;;;12.60;5.33;;;;;;;14.40;79.98;99557.47;1640531;86;21118;-63
2021/11/27 09:01:52;;;;;;;8.75;4.67;;;;;;;14.37;79.83;99553.64;1622584;86;21164;-62
2021/11/27 09:04:19;;;;;;;9.75;5.42;;;;;;;14.39;79.60;99549.00;1621294;86;21120;-60
2021/11/27 09:06:47;;;;;;;9.88;5.55;;;;;;;14.40;79.33;99556.12;1645745;85;21823;-62
2021/11/27 09:09:14;;;;;;;8.83;4.28;;;;;;;14.43;78.46;99555.02;1637861;85;21170;-61
2021/11/27 09:11:42;;;;;;;8.43;4.60;;;;;;;14.41;77.79;99546.18;1638606;85;21124;-62
2021/11/27 09:14:09;;;;;;;11.43;4.65;;;;;;;14.46;77.30;99546.71;1639460;85;21426;-61
2021/11/27 09:16:37;;;;;;;7.00;4.60;;;;;;;14.48;76.82;99542.10;1636658;85;21652;-62
2021/11/27 09:19:06;;;;;;;7.42;4.87;;;;;;;14.51;76.45;99541.00;1637851;86;21072;-63
2021/11/27 09:21:33;;;;;;;6.50;4.35;;;;;;;14.55;76.02;99543.38;1639252;85;21082;-63
2021/11/27 09:24:01;;;;;;;9.90;4.35;;;;;;;14.57;76.00;99536.04;1643555;85;21867;-63
2021/11/27 09:26:28;;;;;;;8.45;4.15;;;;;;;14.63;75.70;99536.56;1645074;85;21139;-61
2021/11/27 09:28:55;;;;;;;6.53;4.78;;;;;;;14.65;75.39;99538.66;1644578;86;21144;-62
2021/11/27 09:31:22;;;;;;;6.95;4.22;;;;;;;14.64;75.20;99545.03;1643654;87;21638;-61
2021/11/27 09:33:50;;;;;;;8.93;4.20;;;;;;;14.64;75.04;99546.38;1645651;86;21023;-63
2021/11/27 09:36:20;;;;;;;6.53;4.03;;;;;;;14.68;75.02;99551.93;1644554;86;21046;-60
2021/11/27 09:38:48;;;;;;;9.30;4.60;;;;;;;14.71;74.98;99547.72;1643043;86;21101;-62
2021/11/27 09:41:20;;;;;;;7.45;4.47;;;;;;;14.78;74.36;99546.77;1643743;85;21100;-62
2021/11/27 09:43:48;;;;;;;9.55;4.33;;;;;;;14.81;74.05;99544.72;1643837;86;21143;-62
2021/11/27 09:46:19;;;;;;;9.43;4.33;;;;;;;14.86;73.94;99556.04;1642973;86;21588;-64
2021/11/27 09:48:49;;;;;;;8.10;4.20;;;;;;;14.86;73.15;99548.45;1644514;87;21442;-61
2021/11/27 09:51:15;;;;;;;7.35;4.62;;;;;;;14.86;73.00;99554.69;1644650;87;21132;-63
2021/11/27 09:53:45;;;;;;;7.58;4.47;;;;;;;14.87;72.59;99544.78;1640136;85;21081;-61
2021/11/27 09:56:12;;;;;;;11.55;5.42;;;;;;;14.87;72.36;99540.23;1643207;86;21090;-61
2021/11/27 09:58:39;;;;;;;10.25;5.55;;;;;;;14.88;72.11;99539.25;1645556;85;21069;-61
2021/11/27 10:01:07;;;;;;;7.42;4.30;;;;;;;14.88;72.17;99535.70;1642635;87;21505;-60
2021/11/27 10:03:35;;;;;;;9.90;4.92;;;;;;;14.89;72.24;99523.44;1643882;86;21660;-61
2021/11/27 10:06:03;;;;;;;11.95;6.05;;;;;;;14.96;71.98;99528.41;1624574;86;21108;-61
2021/11/27 10:08:30;;;;;;;13.10;6.47;;;;;;;15.02;71.49;99532.00;1627755;86;21115;-61
2021/11/27 10:10:59;;;;;;;9.10;5.90;;;;;;;15.06;71.30;99531.30;1605326;86;21258;-62
2021/11/27 10:13:26;;;;;;;11.68;5.55;;;;;;;15.09;71.43;99537.31;1653264;86;21064;-64
2021/11/27 10:15:53;;;;;;;11.35;5.00;;;;;;;15.13;72.20;99532.56;1656181;85;21069;-61
2021/11/27 10:18:23;;;;;;;9.80;4.10;;;;;;;15.13;72.77;99533.91;1654515;85;21089;-62
2021/11/27 10:21:19;;;;;;;16.40;5.50;;;;;;;15.10;73.00;99527.39;1652971;86;21115;-61
2021/11/27 10:23:49;;;;;;;15.05;5.15;;;;;;;15.08;72.96;99543.69;1617634;87;21038;-61
2021/11/27 10:26:39;;;;;;;11.65;5.53;;;;;;;15.06;73.41;99560.98;1660714;84;21029;-62
2021/11/27 10:29:19;;;;;;;11.93;5.03;;;;;;;15.06;73.58;99551.03;1656025;85;21107;-61
2021/11/27 10:31:52;;;;;;;15.50;4.85;;;;;;;15.05;73.75;99538.52;1634689;85;21075;-61
2021/11/27 10:34:23;;;;;;;;;;;;;;;15.02;73.51;99542.80;1636709;85;20972;-61
2021/11/27 10:36:51;;;;;;;13.68;4.80;;;;;;;14.96;73.51;99541.39;1620020;87;20220;-61
2021/11/27 10:39:18;;;;;;;9.65;4.37;;;;;;;14.88;73.62;99539.75;1663785;85;21057;-61
2021/11/27 10:41:59;;;;;;;12.50;4.20;;;;;;;14.78;73.72;99546.30;1630073;87;21016;-62
2021/11/27 10:44:29;;;;;;;11.57;4.37;;;;;;;14.74;74.12;99544.80;1628420;87;21719;-62
2021/11/27 10:47:14;;;;;;;10.63;4.40;;;;;;;14.72;74.46;99552.14;1639877;86;21794;-64
2021/11/27 10:49:44;;;;;;;10.03;4.25;;;;;;;14.67;74.92;99537.59;1639051;85;21509;-61
2021/11/27 10:52:18;;;;;;;8.85;4.60;;;;;;;14.70;75.44;99539.19;1637613;86;21022;-62
2021/11/27 10:54:56;;;;;;;8.03;4.30;;;;;;;14.76;75.32;99526.66;1646238;85;21155;-60
2021/11/27 10:57:34;;;;;;;6.97;3.70;;;;;;;14.82;74.93;99522.67;1663561;85;21128;-62
2021/11/27 11:00:08;;;;;;;9.65;4.28;;;;;;;14.86;74.11;99507.47;1622144;86;21570;-62
2021/11/27 11:02:38;;;;;;;6.97;3.80;;;;;;;14.88;73.57;99508.22;1627202;87;25277;-62
2021/11/27 11:05:14;;;;;;;6.80;3.62;;;;;;;14.96;73.23;99504.96;1644131;86;21081;-63
2021/11/27 11:07:54;;;;;;;11.55;4.40;;;;;;;15.05;72.57;99515.58;1639531;86;21112;-62
2021/11/27 11:10:24;;;;;;;9.00;3.70;;;;;;;15.24;72.61;99516.91;1632596;86;21074;-61
2021/11/27 11:13:06;;;;;;;8.53;3.90;;;;;;;15.45;71.88;99511.26;1643090;86;21536;-61
2021/11/27 11:15:45;;;;;;;6.50;3.52;;;;;;;15.58;71.13;99519.77;1630547;86;21010;-62
2021/11/27 11:18:24;;;;;;;12.60;4.83;;;;;;;15.69;70.29;99528.41;1633756;86;21058;-63
2021/11/27 11:20:59;;;;;;;10.20;4.85;;;;;;;15.77;70.81;99526.00;1633782;86;21086;-61
2021/11/27 11:23:30;;;;;;;15.88;5.37;;;;;;;15.75;71.72;99522.56;1634997;86;26837;-63
2021/11/27 11:26:17;;;;;;;10.18;4.45;;;;;;;15.66;72.03;99529.52;1639247;86;21687;-62
2021/11/27 11:28:57;;;;;;;9.33;4.60;;;;;;;15.53;72.41;99531.42;1637056;86;20915;-61
2021/11/27 11:31:29;;;;;;;10.90;4.75;;;;;;;15.35;72.79;99534.52;1637503;86;20982;-62
2021/11/27 11:33:58;;;;;;;10.45;4.22;;;;;;;15.23;73.24;99547.59;1637394;84;21102;-63